sensor_id;sensor_type;location;lat;lon;timestamp;pressure;altitude;pressure_sealevel;temperature;humidity
22311;BME280;11323;49.610;11.016;2022-07-21T00:03:41;98387.00;;;27.68;46.05
22311;BME280;11323;49.610;11.016;2022-07-21T00:08:42;98410.75;;;27.64;46.59
22311;BME280;11323;49.610;11.016;2022-07-21T00:13:43;98402.34;;;27.78;46.02
22311;BME280;11323;49.610;11.016;2022-07-21T00:18:43;98412.06;;;27.84;45.83
22311;BME280;11323;49.610;11.016;2022-07-21T00:23:43;98412.50;;;27.75;46.00
22311;BME280;11323;49.610;11.016;2022-07-21T00:28:44;98422.22;;;27.82;45.89
22311;BME280;11323;49.610;11.016;2022-07-21T00:33:44;98429.00;;;27.89;45.89
22311;BME280;11323;49.610;11.016;2022-07-21T00:38:45;98427.16;;;27.68;46.43
22311;BME280;11323;49.610;11.016;2022-07-21T00:43:45;98420.19;;;27.67;46.40
22311;BME280;11323;49.610;11.016;2022-07-21T00:48:46;98421.28;;;27.71;46.20
22311;BME280;11323;49.610;11.016;2022-07-21T00:53:46;98373.44;;;27.80;46.22
22311;BME280;11323;49.610;11.016;2022-07-21T00:58:46;98357.13;;;27.81;46.01
22311;BME280;11323;49.610;11.016;2022-07-21T01:03:47;98358.44;;;27.79;46.12
22311;BME280;11323;49.610;11.016;2022-07-21T01:08:47;98284.59;;;27.83;45.93
22311;BME280;11323;49.610;11.016;2022-07-21T01:13:48;98269.31;;;27.83;45.88
22311;BME280;11323;49.610;11.016;2022-07-21T01:18:48;98255.41;;;27.86;46.11
22311;BME280;11323;49.610;11.016;2022-07-21T01:23:49;98273.66;;;27.89;46.18
22311;BME280;11323;49.610;11.016;2022-07-21T01:28:50;98280.66;;;27.90;46.24
22311;BME280;11323;49.610;11.016;2022-07-21T01:33:51;98283.31;;;27.90;46.10
22311;BME280;11323;49.610;11.016;2022-07-21T01:38:51;98303.69;;;27.92;46.45
22311;BME280;11323;49.610;11.016;2022-07-21T01:44:12;98314.91;;;27.88;46.63
22311;BME280;11323;49.610;11.016;2022-07-21T01:49:14;98306.03;;;27.88;46.67
22311;BME280;11323;49.610;11.016;2022-07-21T01:54:16;98290.81;;;27.88;46.85
22311;BME280;11323;49.610;11.016;2022-07-21T01:59:16;98298.19;;;27.54;48.19
22311;BME280;11323;49.610;11.016;2022-07-21T02:04:17;98293.81;;;27.70;47.86
22311;BME280;11323;49.610;11.016;2022-07-21T02:09:17;98296.38;;;27.59;47.74
22311;BME280;11323;49.610;11.016;2022-07-21T02:14:17;98292.75;;;27.71;48.06
22311;BME280;11323;49.610;11.016;2022-07-21T02:19:18;98293.88;;;27.75;47.71
22311;BME280;11323;49.610;11.016;2022-07-21T02:24:18;98310.81;;;27.81;47.43
22311;BME280;11323;49.610;11.016;2022-07-21T02:29:19;98299.81;;;27.82;47.19
22311;BME280;11323;49.610;11.016;2022-07-21T02:34:19;98303.56;;;27.81;47.30
22311;BME280;11323;49.610;11.016;2022-07-21T02:39:19;98298.47;;;27.80;47.52
22311;BME280;11323;49.610;11.016;2022-07-21T02:44:20;98308.13;;;27.81;47.25
22311;BME280;11323;49.610;11.016;2022-07-21T02:49:21;98316.72;;;27.83;47.12
22311;BME280;11323;49.610;11.016;2022-07-21T02:54:21;98334.66;;;27.82;46.94
22311;BME280;11323;49.610;11.016;2022-07-21T02:59:21;98328.75;;;27.80;47.15
22311;BME280;11323;49.610;11.016;2022-07-21T03:04:22;98341.06;;;27.81;47.25
22311;BME280;11323;49.610;11.016;2022-07-21T03:09:22;98355.53;;;27.80;46.78
22311;BME280;11323;49.610;11.016;2022-07-21T03:14:23;98364.63;;;27.79;47.20
22311;BME280;11323;49.610;11.016;2022-07-21T03:19:23;98390.28;;;27.75;47.18
22311;BME280;11323;49.610;11.016;2022-07-21T03:24:24;98410.03;;;27.69;47.24
22311;BME280;11323;49.610;11.016;2022-07-21T03:29:24;98420.00;;;27.73;47.29
22311;BME280;11323;49.610;11.016;2022-07-21T03:34:24;98422.91;;;27.72;47.36
22311;BME280;11323;49.610;11.016;2022-07-21T03:39:25;98426.63;;;27.71;47.13
22311;BME280;11323;49.610;11.016;2022-07-21T03:44:25;98456.66;;;27.73;47.26
22311;BME280;11323;49.610;11.016;2022-07-21T03:49:25;98465.25;;;27.75;47.01
22311;BME280;11323;49.610;11.016;2022-07-21T03:54:26;98453.09;;;27.67;47.28
22311;BME280;11323;49.610;11.016;2022-07-21T03:59:26;98465.38;;;27.63;47.63
22311;BME280;11323;49.610;11.016;2022-07-21T04:04:27;98469.00;;;27.18;48.60
22311;BME280;11323;49.610;11.016;2022-07-21T04:09:27;98457.84;;;27.43;48.01
22311;BME280;11323;49.610;11.016;2022-07-21T04:14:27;98457.28;;;27.58;47.53
22311;BME280;11323;49.610;11.016;2022-07-21T04:19:28;98452.22;;;27.22;49.84
22311;BME280;11323;49.610;11.016;2022-07-21T04:24:29;98449.00;;;25.23;56.15
22311;BME280;11323;49.610;11.016;2022-07-21T04:29:29;98434.66;;;24.15;59.75
22311;BME280;11323;49.610;11.016;2022-07-21T04:34:30;98453.59;;;23.70;62.85
22311;BME280;11323;49.610;11.016;2022-07-21T04:39:30;98490.78;;;24.44;59.17
22311;BME280;11323;49.610;11.016;2022-07-21T04:44:31;98486.19;;;24.51;58.59
22311;BME280;11323;49.610;11.016;2022-07-21T04:49:31;98511.75;;;24.41;59.74
22311;BME280;11323;49.610;11.016;2022-07-21T04:54:32;98513.66;;;22.83;64.14
22311;BME280;11323;49.610;11.016;2022-07-21T04:59:33;98518.59;;;23.37;62.71
22311;BME280;11323;49.610;11.016;2022-07-21T05:04:34;98501.59;;;23.12;63.71
22311;BME280;11323;49.610;11.016;2022-07-21T05:09:34;98515.25;;;23.85;61.89
22311;BME280;11323;49.610;11.016;2022-07-21T05:14:35;98519.81;;;22.77;65.66
22311;BME280;11323;49.610;11.016;2022-07-21T05:19:35;98519.09;;;24.27;60.30
22311;BME280;11323;49.610;11.016;2022-07-21T05:24:35;98516.25;;;25.25;56.37
22311;BME280;11323;49.610;11.016;2022-07-21T05:29:36;98536.03;;;25.48;56.94
22311;BME280;11323;49.610;11.016;2022-07-21T05:34:36;98532.53;;;23.76;62.95
22311;BME280;11323;49.610;11.016;2022-07-21T05:39:37;98530.72;;;24.93;59.23
22311;BME280;11323;49.610;11.016;2022-07-21T05:44:37;98518.97;;;24.71;60.23
22311;BME280;11323;49.610;11.016;2022-07-21T05:49:38;98541.78;;;25.21;58.27
22311;BME280;11323;49.610;11.016;2022-07-21T05:54:38;98559.47;;;25.69;55.70
22311;BME280;11323;49.610;11.016;2022-07-21T05:59:38;98565.50;;;26.00;54.09
22311;BME280;11323;49.610;11.016;2022-07-21T06:04:39;98558.63;;;26.16;53.33
22311;BME280;11323;49.610;11.016;2022-07-21T06:09:41;98569.88;;;26.30;52.63
22311;BME280;11323;49.610;11.016;2022-07-21T06:14:41;98576.69;;;26.38;52.11
22311;BME280;11323;49.610;11.016;2022-07-21T06:19:42;98567.97;;;26.43;51.81
22311;BME280;11323;49.610;11.016;2022-07-21T06:24:42;98571.78;;;26.47;51.49
22311;BME280;11323;49.610;11.016;2022-07-21T06:29:43;98569.47;;;26.50;51.29
22311;BME280;11323;49.610;11.016;2022-07-21T06:34:43;98568.16;;;26.53;51.17
22311;BME280;11323;49.610;11.016;2022-07-21T06:39:43;98576.25;;;26.58;51.21
22311;BME280;11323;49.610;11.016;2022-07-21T06:44:44;98568.34;;;26.63;51.03
22311;BME280;11323;49.610;11.016;2022-07-21T06:49:44;98574.34;;;26.71;50.66
22311;BME280;11323;49.610;11.016;2022-07-21T06:54:45;98570.63;;;26.72;50.93
22311;BME280;11323;49.610;11.016;2022-07-21T06:59:45;98577.59;;;26.73;50.42
22311;BME280;11323;49.610;11.016;2022-07-21T07:04:45;98576.56;;;26.74;50.43
22311;BME280;11323;49.610;11.016;2022-07-21T07:09:46;98587.84;;;26.76;50.42
22311;BME280;11323;49.610;11.016;2022-07-21T07:14:46;98585.50;;;26.79;50.61
22311;BME280;11323;49.610;11.016;2022-07-21T07:19:47;98575.72;;;26.85;50.29
22311;BME280;11323;49.610;11.016;2022-07-21T07:24:48;98585.38;;;26.86;50.01
22311;BME280;11323;49.610;11.016;2022-07-21T07:29:48;98581.06;;;26.85;49.99
22311;BME280;11323;49.610;11.016;2022-07-21T07:34:49;98586.41;;;26.85;49.82
22311;BME280;11323;49.610;11.016;2022-07-21T07:39:49;98603.81;;;27.00;49.66
22311;BME280;11323;49.610;11.016;2022-07-21T07:44:49;98602.19;;;26.98;49.70
22311;BME280;11323;49.610;11.016;2022-07-21T07:49:50;98587.44;;;26.96;49.74
22311;BME280;11323;49.610;11.016;2022-07-21T07:54:52;98594.72;;;27.01;49.34
22311;BME280;11323;49.610;11.016;2022-07-21T07:59:53;98595.84;;;27.05;49.44
22311;BME280;11323;49.610;11.016;2022-07-21T08:04:53;98589.44;;;27.06;49.50
22311;BME280;11323;49.610;11.016;2022-07-21T08:09:53;98586.88;;;27.11;49.42
22311;BME280;11323;49.610;11.016;2022-07-21T08:14:54;98586.16;;;27.16;49.31
22311;BME280;11323;49.610;11.016;2022-07-21T08:19:54;98583.78;;;27.19;48.84
22311;BME280;11323;49.610;11.016;2022-07-21T08:24:55;98583.22;;;27.17;48.85
22311;BME280;11323;49.610;11.016;2022-07-21T08:29:56;98598.88;;;27.25;48.56
22311;BME280;11323;49.610;11.016;2022-07-21T08:34:56;98580.31;;;27.19;48.65
22311;BME280;11323;49.610;11.016;2022-07-21T08:39:57;98601.53;;;27.25;48.61
22311;BME280;11323;49.610;11.016;2022-07-21T08:44:57;98601.91;;;27.29;48.66
22311;BME280;11323;49.610;11.016;2022-07-21T08:49:58;98603.16;;;27.26;48.56
22311;BME280;11323;49.610;11.016;2022-07-21T08:55:00;98592.75;;;26.79;50.71
22311;BME280;11323;49.610;11.016;2022-07-21T09:00:00;98599.13;;;26.66;50.12
22311;BME280;11323;49.610;11.016;2022-07-21T09:05:01;98606.34;;;26.13;51.58
22311;BME280;11323;49.610;11.016;2022-07-21T09:10:04;98608.53;;;26.68;49.82
22311;BME280;11323;49.610;11.016;2022-07-21T09:15:16;98604.47;;;26.25;50.41
22311;BME280;11323;49.610;11.016;2022-07-21T09:20:23;98614.84;;;26.62;49.17
22311;BME280;11323;49.610;11.016;2022-07-21T09:25:42;98609.44;;;26.45;49.11
22311;BME280;11323;49.610;11.016;2022-07-21T09:36:13;98600.63;;;26.45;49.21
22311;BME280;11323;49.610;11.016;2022-07-21T09:41:16;98599.84;;;26.32;50.35
22311;BME280;11323;49.610;11.016;2022-07-21T09:46:21;98599.06;;;26.90;48.14
22311;BME280;11323;49.610;11.016;2022-07-21T09:51:33;98601.38;;;27.15;47.60
22311;BME280;11323;49.610;11.016;2022-07-21T09:56:37;98599.59;;;27.21;47.51
22311;BME280;11323;49.610;11.016;2022-07-21T10:01:38;98590.84;;;27.25;47.11
22311;BME280;11323;49.610;11.016;2022-07-21T10:06:39;98585.59;;;27.31;47.01
22311;BME280;11323;49.610;11.016;2022-07-21T10:11:40;98588.84;;;27.33;47.22
22311;BME280;11323;49.610;11.016;2022-07-21T10:16:41;98583.47;;;27.33;47.15
22311;BME280;11323;49.610;11.016;2022-07-21T10:21:49;98577.56;;;27.31;47.41
22311;BME280;11323;49.610;11.016;2022-07-21T10:27:01;98581.38;;;27.35;47.42
22311;BME280;11323;49.610;11.016;2022-07-21T10:32:11;98573.41;;;27.40;47.01
22311;BME280;11323;49.610;11.016;2022-07-21T10:37:12;98583.06;;;27.41;47.30
22311;BME280;11323;49.610;11.016;2022-07-21T10:42:31;98571.72;;;27.34;47.32
22311;BME280;11323;49.610;11.016;2022-07-21T10:47:32;98578.53;;;27.24;47.53
22311;BME280;11323;49.610;11.016;2022-07-21T10:57:40;98577.09;;;27.34;47.32
22311;BME280;11323;49.610;11.016;2022-07-21T11:02:42;98572.31;;;27.36;47.39
22311;BME280;11323;49.610;11.016;2022-07-21T11:08:15;98580.34;;;27.36;47.63
22311;BME280;11323;49.610;11.016;2022-07-21T11:13:17;98566.00;;;26.79;46.40
22311;BME280;11323;49.610;11.016;2022-07-21T11:18:21;98572.50;;;26.71;46.25
22311;BME280;11323;49.610;11.016;2022-07-21T11:23:21;98553.94;;;26.64;44.88
22311;BME280;11323;49.610;11.016;2022-07-21T11:28:22;98551.84;;;26.66;43.97
22311;BME280;11323;49.610;11.016;2022-07-21T11:33:24;98550.88;;;26.44;43.50
22311;BME280;11323;49.610;11.016;2022-07-21T11:38:25;98543.19;;;26.47;44.03
22311;BME280;11323;49.610;11.016;2022-07-21T11:43:42;98537.75;;;26.42;43.44
22311;BME280;11323;49.610;11.016;2022-07-21T11:48:43;98524.97;;;26.44;43.19
22311;BME280;11323;49.610;11.016;2022-07-21T11:53:44;98535.50;;;26.80;43.70
22311;BME280;11323;49.610;11.016;2022-07-21T11:58:45;98522.34;;;26.90;43.76
22311;BME280;11323;49.610;11.016;2022-07-21T12:03:47;98515.69;;;26.93;43.15
22311;BME280;11323;49.610;11.016;2022-07-21T12:08:48;98504.28;;;26.97;42.84
22311;BME280;11323;49.610;11.016;2022-07-21T12:13:57;98507.00;;;26.86;42.29
22311;BME280;11323;49.610;11.016;2022-07-21T12:19:11;98499.22;;;26.84;42.23
22311;BME280;11323;49.610;11.016;2022-07-21T12:24:12;98492.09;;;26.90;42.65
22311;BME280;11323;49.610;11.016;2022-07-21T12:29:26;98497.03;;;26.98;42.62
22311;BME280;11323;49.610;11.016;2022-07-21T12:34:27;98492.69;;;27.09;43.62
22311;BME280;11323;49.610;11.016;2022-07-21T12:39:27;98486.34;;;27.15;42.49
22311;BME280;11323;49.610;11.016;2022-07-21T12:44:46;98493.63;;;27.20;43.72
22311;BME280;11323;49.610;11.016;2022-07-21T12:54:54;98492.91;;;27.24;43.49
22311;BME280;11323;49.610;11.016;2022-07-21T12:59:55;98499.16;;;27.30;43.89
22311;BME280;11323;49.610;11.016;2022-07-21T13:04:56;98494.59;;;27.31;44.18
22311;BME280;11323;49.610;11.016;2022-07-21T13:09:56;98487.38;;;27.31;43.84
22311;BME280;11323;49.610;11.016;2022-07-21T13:14:56;98471.00;;;27.27;42.68
22311;BME280;11323;49.610;11.016;2022-07-21T13:19:57;98479.69;;;27.35;44.13
22311;BME280;11323;49.610;11.016;2022-07-21T13:24:57;98477.50;;;27.32;44.71
22311;BME280;11323;49.610;11.016;2022-07-21T13:29:58;98467.09;;;27.35;44.40
22311;BME280;11323;49.610;11.016;2022-07-21T13:34:58;98449.75;;;27.38;44.77
22311;BME280;11323;49.610;11.016;2022-07-21T13:39:59;98458.34;;;27.40;44.74
22311;BME280;11323;49.610;11.016;2022-07-21T13:44:59;98457.53;;;27.39;44.73
22311;BME280;11323;49.610;11.016;2022-07-21T13:50:00;98458.81;;;27.37;44.54
22311;BME280;11323;49.610;11.016;2022-07-21T13:55:02;98449.25;;;27.41;44.74
22311;BME280;11323;49.610;11.016;2022-07-21T14:00:08;98444.25;;;27.44;44.65
22311;BME280;11323;49.610;11.016;2022-07-21T14:05:09;98441.34;;;27.46;44.59
22311;BME280;11323;49.610;11.016;2022-07-21T14:10:09;98447.50;;;27.47;44.76
22311;BME280;11323;49.610;11.016;2022-07-21T14:15:10;98440.28;;;27.47;42.07
22311;BME280;11323;49.610;11.016;2022-07-21T14:20:11;98438.72;;;27.51;44.07
22311;BME280;11323;49.610;11.016;2022-07-21T14:25:12;98446.47;;;27.53;44.27
22311;BME280;11323;49.610;11.016;2022-07-21T14:30:22;98443.56;;;27.54;44.63
22311;BME280;11323;49.610;11.016;2022-07-21T14:35:24;98436.59;;;27.53;44.71
22311;BME280;11323;49.610;11.016;2022-07-21T14:40:27;98434.72;;;27.54;44.46
22311;BME280;11323;49.610;11.016;2022-07-21T14:45:27;98430.75;;;27.56;43.53
22311;BME280;11323;49.610;11.016;2022-07-21T14:50:28;98438.03;;;27.61;43.77
22311;BME280;11323;49.610;11.016;2022-07-21T14:55:29;98423.34;;;27.64;44.03
22311;BME280;11323;49.610;11.016;2022-07-21T15:00:30;98422.78;;;27.62;44.22
22311;BME280;11323;49.610;11.016;2022-07-21T15:05:30;98419.03;;;27.63;44.12
22311;BME280;11323;49.610;11.016;2022-07-21T15:10:31;98424.41;;;27.63;44.48
22311;BME280;11323;49.610;11.016;2022-07-21T15:15:31;98428.22;;;27.67;44.75
22311;BME280;11323;49.610;11.016;2022-07-21T15:20:33;98416.44;;;27.68;44.96
22311;BME280;11323;49.610;11.016;2022-07-21T15:25:33;98411.63;;;27.70;44.67
22311;BME280;11323;49.610;11.016;2022-07-21T15:30:34;98407.59;;;27.67;44.87
22311;BME280;11323;49.610;11.016;2022-07-21T15:35:34;98398.25;;;27.70;44.30
22311;BME280;11323;49.610;11.016;2022-07-21T15:40:35;98405.78;;;27.73;44.53
22311;BME280;11323;49.610;11.016;2022-07-21T15:45:35;98416.56;;;27.78;43.09
22311;BME280;11323;49.610;11.016;2022-07-21T15:50:36;98402.91;;;27.80;44.68
22311;BME280;11323;49.610;11.016;2022-07-21T15:55:36;98399.44;;;27.79;43.50
22311;BME280;11323;49.610;11.016;2022-07-21T16:00:37;98400.78;;;27.82;44.25
22311;BME280;11323;49.610;11.016;2022-07-21T16:05:38;98394.63;;;27.81;43.75
22311;BME280;11323;49.610;11.016;2022-07-21T16:10:39;98389.88;;;27.88;43.81
22311;BME280;11323;49.610;11.016;2022-07-21T16:15:39;98380.16;;;27.82;41.50
22311;BME280;11323;49.610;11.016;2022-07-21T16:20:40;98381.84;;;27.88;43.82
22311;BME280;11323;49.610;11.016;2022-07-21T16:25:40;98376.00;;;27.92;43.71
22311;BME280;11323;49.610;11.016;2022-07-21T16:30:40;98378.72;;;27.97;44.02
22311;BME280;11323;49.610;11.016;2022-07-21T16:35:41;98373.44;;;28.02;44.57
22311;BME280;11323;49.610;11.016;2022-07-21T16:40:41;98374.97;;;27.98;44.28
22311;BME280;11323;49.610;11.016;2022-07-21T16:45:41;98384.63;;;27.99;43.10
22311;BME280;11323;49.610;11.016;2022-07-21T16:50:42;98377.16;;;28.01;44.27
22311;BME280;11323;49.610;11.016;2022-07-21T16:55:42;98380.13;;;28.04;43.21
22311;BME280;11323;49.610;11.016;2022-07-21T17:00:43;98379.09;;;28.05;43.51
22311;BME280;11323;49.610;11.016;2022-07-21T17:05:43;98376.97;;;28.08;43.72
22311;BME280;11323;49.610;11.016;2022-07-21T17:10:43;98381.03;;;28.10;43.86
22311;BME280;11323;49.610;11.016;2022-07-21T17:15:44;98386.38;;;28.10;43.52
22311;BME280;11323;49.610;11.016;2022-07-21T17:20:44;98380.47;;;28.08;43.51
22311;BME280;11323;49.610;11.016;2022-07-21T17:25:45;98372.44;;;28.08;42.73
22311;BME280;11323;49.610;11.016;2022-07-21T17:30:46;98376.13;;;28.07;43.98
22311;BME280;11323;49.610;11.016;2022-07-21T17:35:47;98369.16;;;28.06;43.53
22311;BME280;11323;49.610;11.016;2022-07-21T17:40:48;98378.03;;;28.07;43.89
22311;BME280;11323;49.610;11.016;2022-07-21T17:45:48;98379.88;;;28.06;43.26
22311;BME280;11323;49.610;11.016;2022-07-21T17:50:48;98378.34;;;28.10;43.99
22311;BME280;11323;49.610;11.016;2022-07-21T17:55:49;98374.53;;;28.06;43.72
22311;BME280;11323;49.610;11.016;2022-07-21T18:00:49;98380.13;;;28.04;43.61
22311;BME280;11323;49.610;11.016;2022-07-21T18:05:50;98384.16;;;28.02;44.42
22311;BME280;11323;49.610;11.016;2022-07-21T18:10:50;98381.69;;;28.00;44.13
22311;BME280;11323;49.610;11.016;2022-07-21T18:15:52;98383.88;;;28.03;43.97
22311;BME280;11323;49.610;11.016;2022-07-21T18:20:52;98384.63;;;27.99;43.98
22311;BME280;11323;49.610;11.016;2022-07-21T18:25:53;98394.03;;;28.01;44.14
22311;BME280;11323;49.610;11.016;2022-07-21T18:30:55;98373.91;;;27.99;44.21
22311;BME280;11323;49.610;11.016;2022-07-21T18:35:55;98380.91;;;28.00;44.13
22311;BME280;11323;49.610;11.016;2022-07-21T18:40:55;98379.28;;;27.99;44.82
22311;BME280;11323;49.610;11.016;2022-07-21T18:45:56;98384.63;;;27.99;44.28
22311;BME280;11323;49.610;11.016;2022-07-21T18:50:57;98386.25;;;28.00;44.20
22311;BME280;11323;49.610;11.016;2022-07-21T18:55:57;98388.38;;;27.98;44.49
22311;BME280;11323;49.610;11.016;2022-07-21T19:00:57;98387.25;;;27.94;44.45
22311;BME280;11323;49.610;11.016;2022-07-21T19:06:02;98389.13;;;27.93;44.32
22311;BME280;11323;49.610;11.016;2022-07-21T19:11:04;98392.59;;;27.94;44.25
22311;BME280;11323;49.610;11.016;2022-07-21T19:16:05;98394.50;;;27.93;44.48
22311;BME280;11323;49.610;11.016;2022-07-21T19:21:05;98405.47;;;27.92;44.45
22311;BME280;11323;49.610;11.016;2022-07-21T19:26:06;98416.19;;;27.92;44.45
22311;BME280;11323;49.610;11.016;2022-07-21T19:31:07;98421.22;;;27.88;44.47
22311;BME280;11323;49.610;11.016;2022-07-21T19:36:08;98431.91;;;27.88;44.66
22311;BME280;11323;49.610;11.016;2022-07-21T19:41:08;98430.06;;;27.88;44.71
22311;BME280;11323;49.610;11.016;2022-07-21T19:46:09;98432.97;;;27.87;44.40
22311;BME280;11323;49.610;11.016;2022-07-21T19:51:09;98444.03;;;26.32;45.23
22311;BME280;11323;49.610;11.016;2022-07-21T19:56:10;98442.84;;;26.40;42.97
22311;BME280;11323;49.610;11.016;2022-07-21T20:01:10;98437.22;;;26.24;43.14
22311;BME280;11323;49.610;11.016;2022-07-21T20:06:11;98445.88;;;26.14;42.82
22311;BME280;11323;49.610;11.016;2022-07-21T20:11:11;98444.22;;;25.72;43.33
22311;BME280;11323;49.610;11.016;2022-07-21T20:16:13;98449.72;;;25.30;44.67
22311;BME280;11323;49.610;11.016;2022-07-21T20:21:14;98445.72;;;25.68;43.29
22311;BME280;11323;49.610;11.016;2022-07-21T20:26:14;98445.56;;;25.46;43.80
22311;BME280;11323;49.610;11.016;2022-07-21T20:31:15;98455.47;;;24.49;45.20
22311;BME280;11323;49.610;11.016;2022-07-21T20:36:15;98443.59;;;23.84;47.93
22311;BME280;11323;49.610;11.016;2022-07-21T20:41:16;98452.09;;;23.93;47.23
22311;BME280;11323;49.610;11.016;2022-07-21T20:46:16;98445.47;;;24.02;47.07
22311;BME280;11323;49.610;11.016;2022-07-21T20:51:16;98453.00;;;23.86;47.36
22311;BME280;11323;49.610;11.016;2022-07-21T20:56:17;98451.50;;;24.40;46.30
22311;BME280;11323;49.610;11.016;2022-07-21T21:01:21;98453.91;;;24.29;47.07
22311;BME280;11323;49.610;11.016;2022-07-21T21:06:47;98458.06;;;25.46;45.44
22311;BME280;11323;49.610;11.016;2022-07-21T21:12:42;98456.16;;;25.82;44.71
22311;BME280;11323;49.610;11.016;2022-07-21T21:24:47;98464.47;;;25.97;44.38
22311;BME280;11323;49.610;11.016;2022-07-21T21:29:49;98456.69;;;25.96;44.05
22311;BME280;11323;49.610;11.016;2022-07-21T21:36:53;98455.44;;;25.98;43.92
22311;BME280;11323;49.610;11.016;2022-07-21T21:41:55;98454.25;;;25.94;44.08
22311;BME280;11323;49.610;11.016;2022-07-21T21:47:04;98461.22;;;25.95;43.98
22311;BME280;11323;49.610;11.016;2022-07-21T22:12:42;98469.94;;;25.90;44.20
22311;BME280;11323;49.610;11.016;2022-07-21T22:18:23;98472.41;;;25.68;44.71
22311;BME280;11323;49.610;11.016;2022-07-21T22:24:36;98468.47;;;25.83;44.17
22311;BME280;11323;49.610;11.016;2022-07-21T22:29:38;98444.09;;;25.67;44.30
22311;BME280;11323;49.610;11.016;2022-07-21T22:35:25;98457.00;;;25.70;44.15
22311;BME280;11323;49.610;11.016;2022-07-21T22:41:51;98461.28;;;25.71;44.52
22311;BME280;11323;49.610;11.016;2022-07-21T22:54:37;98462.25;;;25.65;44.53
22311;BME280;11323;49.610;11.016;2022-07-21T23:00:52;98465.25;;;25.21;45.13
22311;BME280;11323;49.610;11.016;2022-07-21T23:06:38;98459.47;;;24.28;47.15
22311;BME280;11323;49.610;11.016;2022-07-21T23:11:43;98455.38;;;24.56;46.71
22311;BME280;11323;49.610;11.016;2022-07-21T23:16:50;98446.53;;;24.43;46.87
22311;BME280;11323;49.610;11.016;2022-07-21T23:21:50;98463.50;;;23.81;48.25
22311;BME280;11323;49.610;11.016;2022-07-21T23:26:51;98458.72;;;24.51;46.73
22311;BME280;11323;49.610;11.016;2022-07-21T23:31:51;98441.28;;;24.67;45.99
22311;BME280;11323;49.610;11.016;2022-07-21T23:36:51;98460.38;;;25.06;45.61
22311;BME280;11323;49.610;11.016;2022-07-21T23:41:52;98446.22;;;24.09;47.01
22311;BME280;11323;49.610;11.016;2022-07-21T23:46:52;98436.22;;;23.49;48.27
22311;BME280;11323;49.610;11.016;2022-07-21T23:51:53;98442.63;;;23.78;47.67
22311;BME280;11323;49.610;11.016;2022-07-21T23:56:53;98457.72;;;23.66;48.61
